Terminal Aerodrome Forecast
Issued by NWS

Home | Current Version | Previous Version | Text Only | Print | Product List | Glossary On
Versions: 1 2 3 4 5 6 7 8 9 10 11 12 13 14 15 16 17 18 19 20 21 22 23 24 25 26 27 28 29 30 31 32
000
FTUS43 KGLD 252320
TAFMCK
TAF
KMCK 252320Z 2600/2624 02010KT P6SM SCT015
     FM260200 36010KT P6SM BKN015
      TEMPO 2604/2608 6SM BR BKN005
     FM260800 01012G20KT 3SM -SN BR OVC005
     FM261400 02014G24KT 1/2SM -SN BLSN FZFG OVC003=

USA.gov is the U.S. government's official web portal to all federal, state and local government web resources and services.